Fairbanks, AK (99712)

8:35 PM AKDT on October 24, 2014 (GMT -0800)
AKDOT Steese Highway @ Cleary Summit MP 20.9 | Change Station
CLOSE
Current Station
Personal Weather Station
Location: Fairbanks, AK
Elevation: 2267 ft
Nearby Weather Stations

Elev 2267 ft 65.05 °N, 147.45 °W | Updated 50 minutes ago

Light Snow
Light Snow
19 °F
Feels Like 11 °F
N
6
Wind Variable Wind from SE
Gusts 9.0 mph

Today
High -- | Low -- °F
--% Chance of Precip.
Yesterday
High -- | Low -- °F
Precip. -- in
9:11 AM 5:50 PM
New Moon, 2% visible
Pressure 29.97 in
Visibility 4.0 miles
Clouds Scattered Clouds 2500 ft
Overcast 6000 ft
Windchill 11 °F
Dew Point 17 °F
Humidity 92%
Rainfall 0.00 in
Snow Depth 5 in
UV 0 out of 12
Pollen Not available.
Air Quality Not available.
Flu Activity Local Activity
METAR PAFB 250355Z 00000KT 4SM -SN SCT025 OVC060 M05/M06 A2994 RMK SLP147

More Conditions Fewer Conditions

Pressure 29.97 in
Visibility 4.0 miles
Clouds Scattered Clouds 2500 ft
Overcast 6000 ft
Windchill 11 °F
Dew Point 17 °F
Humidity 92%
Rainfall 0.00 in
Snow Depth 5 in
UV 0 out of 12
Pollen Not available.
Air Quality Not available.
Flu Activity Local Activity
METAR PAFB 250355Z 00000KT 4SM -SN SCT025 OVC060 M05/M06 A2994 RMK SLP147

More Conditions Fewer Conditions

10-Day Weather Forecast

Almanac

Astronomy

Oct. 24, 2014 Rise Set
Actual Time 9:11 AM AKDT 5:50 PM AKDT
Civil Twilight 8:18 AM AKDT 6:43 PM AKDT
Nautical Twilight 7:19 AM AKDT 7:41 PM AKDT
Astronomical Twilight 6:22 AM AKDT 8:39 PM AKDT
Moon 10:18 AM AKDT (10/24) 6:13 PM AKDT (10/24)
Length of Visible Light 10h 25m
Length of Day
8h 39m
Tomorrow will be 6m 54s shorter.
New Moon, 2% of the Moon is Illuminated
Oct 25
New Moon
Oct 30
First Quarter
Nov 6
Full
Nov 14
Last Quarter
Nov 22
New

Yesterday's Extremes

State Highs State Lows

Community

WunderPhotos

Upload Photos

1,764,782 photos uploaded!

Nearby

Snow Depth

Station Depth Elevation
Little Chena Ridge 5 in 2000 ft
Mt. Ryan 8 in 2800 ft
Monument Creek 13 in 1850 ft
Munson Ridge 11 in 3100 ft
Teuchet Creek 6 in 1640 ft

Earthquake Activity

City Distance Mag. Time & Date
No recent earthquake activity has been reported nearby.
Minimum magnitude displayed is 2.5.

Coastal Water Temperatures

Place Temperature
No Stations Reporting

Nearby Weather Stations